createdAt,value
2018-09-08T00:01:02.544Z,77.08
2018-09-08T00:03:30.786Z,76.44
2018-09-08T00:05:59.018Z,77.48
2018-09-08T00:08:27.226Z,76.81
2018-09-08T00:10:55.459Z,77.08
2018-09-08T00:13:23.657Z,76.90
2018-09-08T00:15:57.257Z,76.49
2018-09-08T00:18:30.783Z,78.37
2018-09-08T00:21:04.312Z,77.93
2018-09-08T00:23:37.754Z,77.37
2018-09-08T00:26:11.306Z,78.42
2018-09-08T00:28:45.906Z,77.16
2018-09-08T00:31:16.790Z,76.53
2018-09-08T00:33:45.230Z,78.11
2018-09-08T00:36:13.478Z,78.86
2018-09-08T00:38:41.746Z,78.73
2018-09-08T00:41:09.980Z,77.95
2018-09-08T00:43:38.401Z,79.83
2018-09-08T00:46:07.086Z,78.87
2018-09-08T00:48:35.286Z,80.24
2018-09-08T00:51:03.519Z,79.25
2018-09-08T00:53:31.728Z,80.19
2018-09-08T00:55:59.969Z,78.99
2018-09-08T00:58:28.302Z,79.48
2018-09-08T01:00:56.649Z,78.98
2018-09-08T01:03:24.859Z,81.05
2018-09-08T01:05:53.398Z,79.80
2018-09-08T01:08:21.635Z,81.14
2018-09-08T01:10:49.869Z,80.63
2018-09-08T01:13:18.097Z,81.12
2018-09-08T01:15:46.305Z,81.43
2018-09-08T01:18:14.534Z,80.72
2018-09-08T01:20:42.773Z,81.20
2018-09-08T01:23:10.987Z,82.01
2018-09-08T01:25:39.518Z,81.62
2018-09-08T01:28:07.744Z,81.85
2018-09-08T01:30:35.966Z,80.35
2018-09-08T01:33:04.383Z,80.30
2018-09-08T01:35:32.594Z,79.15
2018-09-08T01:38:00.808Z,80.54
2018-09-08T01:40:29.136Z,80.22
2018-09-08T01:42:57.410Z,79.37
2018-09-08T01:45:25.688Z,83.41
2018-09-08T01:47:53.923Z,80.73
2018-09-08T01:50:22.182Z,80.49
2018-09-08T01:52:50.414Z,77.77
2018-09-08T01:55:18.726Z,77.44
2018-09-08T01:57:46.966Z,79.80
2018-09-08T02:00:17.266Z,79.27
2018-09-08T02:02:45.526Z,79.62
2018-09-08T02:05:13.806Z,77.80
2018-09-08T02:07:42.060Z,74.71
2018-09-08T02:10:10.281Z,76.42
2018-09-08T02:12:38.565Z,74.87
2018-09-08T02:15:06.790Z,78.33
2018-09-08T02:17:35.015Z,76.94
2018-09-08T02:20:03.275Z,77.13
2018-09-08T02:22:31.508Z,76.95
2018-09-08T02:24:59.779Z,73.78
2018-09-08T02:27:28.006Z,77.86
2018-09-08T02:29:56.343Z,79.50
2018-09-08T02:32:24.569Z,77.31
2018-09-08T02:34:52.803Z,77.48
2018-09-08T02:37:21.104Z,77.05
2018-09-08T02:39:49.408Z,77.11
2018-09-08T02:42:17.631Z,76.43
2018-09-08T02:44:45.858Z,77.90
2018-09-08T02:47:14.083Z,79.80
2018-09-08T02:49:53.591Z,80.19
2018-09-08T02:52:20.689Z,77.86
2018-09-08T02:54:47.815Z,80.29
2018-09-08T02:57:14.958Z,78.50
2018-09-08T02:59:42.123Z,78.56
2018-09-08T03:02:09.257Z,77.52
2018-09-08T03:04:36.382Z,78.80
2018-09-08T03:07:07.654Z,76.33
2018-09-08T03:09:35.039Z,77.42
2018-09-08T03:12:02.163Z,78.12
2018-09-08T03:14:29.309Z,79.33
2018-09-08T03:16:56.438Z,77.57
2018-09-08T03:19:23.562Z,78.14
2018-09-08T03:21:50.707Z,78.38
2018-09-08T03:24:17.825Z,79.02
2018-09-08T03:26:44.973Z,78.78
2018-09-08T03:29:12.094Z,76.26
2018-09-08T03:31:39.230Z,78.16
2018-09-08T03:34:06.365Z,80.44
2018-09-08T03:36:33.497Z,79.55
2018-09-08T03:39:00.637Z,80.16
2018-09-08T03:41:27.762Z,77.93
2018-09-08T03:43:54.894Z,79.52
2018-09-08T03:46:22.025Z,81.27
2018-09-08T03:48:49.141Z,79.94
2018-09-08T03:51:16.282Z,79.72
2018-09-08T03:53:43.423Z,83.07
2018-09-08T03:56:10.533Z,80.92
2018-09-08T03:58:37.674Z,80.57
2018-09-08T04:01:04.786Z,78.08
2018-09-08T04:03:33.020Z,78.17
2018-09-08T04:06:01.275Z,78.98
2018-09-08T04:08:29.506Z,79.01
2018-09-08T04:10:57.754Z,79.05
2018-09-08T04:13:25.974Z,78.45
2018-09-08T04:15:54.215Z,79.46
2018-09-08T04:18:22.440Z,79.85
2018-09-08T04:20:50.671Z,78.15
2018-09-08T04:23:18.922Z,77.86
2018-09-08T04:25:47.155Z,78.29
2018-09-08T04:28:15.398Z,79.01
2018-09-08T04:30:43.622Z,78.92
2018-09-08T04:33:11.849Z,80.64
2018-09-08T04:35:40.095Z,78.28
2018-09-08T04:38:08.335Z,81.47
2018-09-08T04:40:36.623Z,80.24
2018-09-08T04:43:04.865Z,77.28
2018-09-08T04:45:33.080Z,78.48
2018-09-08T04:48:01.298Z,78.89
2018-09-08T04:50:29.544Z,78.25
2018-09-08T04:52:57.802Z,77.78
2018-09-08T04:55:26.027Z,82.34
2018-09-08T04:57:54.288Z,80.23
2018-09-08T05:00:22.543Z,80.41
2018-09-08T05:02:50.767Z,80.87
2018-09-08T05:05:19.014Z,81.08
2018-09-08T05:07:47.603Z,79.72
2018-09-08T05:10:15.818Z,82.52
2018-09-08T05:12:44.047Z,80.63
2018-09-08T05:15:12.275Z,81.76
2018-09-08T05:17:40.510Z,83.04
2018-09-08T05:20:09.145Z,81.21
2018-09-08T05:22:37.530Z,83.42
2018-09-08T05:25:05.779Z,80.55
2018-09-08T05:27:34.315Z,80.83
2018-09-08T05:30:02.838Z,81.79
2018-09-08T05:32:31.099Z,80.27
2018-09-08T05:34:59.387Z,81.21
2018-09-08T05:37:27.573Z,80.20
2018-09-08T05:39:55.799Z,80.23
2018-09-08T05:42:27.418Z,78.60
2018-09-08T05:44:55.637Z,80.88
2018-09-08T05:47:23.861Z,77.38
2018-09-08T05:49:52.108Z,78.61
2018-09-08T05:52:20.338Z,80.54
2018-09-08T05:54:48.581Z,77.81
2018-09-08T05:57:16.834Z,78.34
2018-09-08T05:59:45.071Z,78.11
2018-09-08T06:02:13.328Z,79.60
2018-09-08T06:04:41.547Z,77.68
2018-09-08T06:07:09.807Z,77.40
2018-09-08T06:09:38.048Z,79.12
2018-09-08T06:12:06.274Z,77.69
2018-09-08T06:14:34.506Z,79.08
2018-09-08T06:17:02.749Z,75.87
2018-09-08T06:19:30.975Z,77.20
2018-09-08T06:21:59.221Z,78.10
2018-09-08T06:24:27.524Z,78.08
2018-09-08T06:26:55.722Z,80.45
2018-09-08T06:29:23.992Z,80.98
2018-09-08T06:31:52.329Z,80.26
2018-09-08T06:34:20.493Z,80.48
2018-09-08T06:36:48.703Z,79.15
2018-09-08T06:39:17.033Z,78.57
2018-09-08T06:41:45.239Z,78.63
2018-09-08T06:44:13.503Z,80.11
2018-09-08T06:46:46.785Z,79.28
2018-09-08T06:49:15.030Z,77.84
2018-09-08T06:51:45.187Z,76.85
2018-09-08T06:54:13.431Z,76.34
2018-09-08T06:56:41.682Z,74.84
2018-09-08T06:59:09.925Z,74.64
2018-09-08T07:01:40.250Z,73.43
2018-09-08T07:04:08.478Z,72.56
2018-09-08T07:06:36.801Z,70.47
2018-09-08T07:09:07.786Z,70.59
2018-09-08T07:11:36.047Z,70.17
2018-09-08T07:14:04.297Z,70.06
2018-09-08T07:16:32.534Z,69.78
2018-09-08T07:19:00.828Z,68.33
2018-09-08T07:21:29.081Z,67.77
2018-09-08T07:23:57.306Z,67.54
2018-09-08T07:26:25.553Z,66.00
2018-09-08T07:28:53.781Z,65.19
2018-09-08T07:31:22.014Z,64.66
2018-09-08T07:33:50.266Z,63.10
2018-09-08T07:36:18.511Z,60.77
2018-09-08T07:38:46.758Z,58.69
2018-09-08T07:41:14.998Z,59.18
2018-09-08T07:43:44.294Z,58.49
2018-09-08T07:46:12.572Z,56.08
2018-09-08T07:48:41.027Z,58.96
2018-09-08T07:51:10.323Z,59.92
2018-09-08T07:53:38.678Z,57.90
2018-09-08T07:56:09.126Z,56.94
2018-09-08T07:58:37.446Z,54.80
2018-09-08T08:01:05.684Z,59.08
2018-09-08T08:03:34.006Z,58.78
2018-09-08T08:06:05.948Z,55.37
2018-09-08T08:08:35.299Z,57.74
2018-09-08T08:11:03.583Z,59.42
2018-09-08T08:13:31.847Z,57.20
2018-09-08T08:16:00.154Z,57.02
2018-09-08T08:18:28.427Z,55.57
2018-09-08T08:20:56.731Z,57.12
2018-09-08T08:23:25.019Z,55.19
2018-09-08T08:25:53.299Z,52.59
2018-09-08T08:28:21.600Z,53.68
2018-09-08T08:30:49.866Z,53.66
2018-09-08T08:33:19.205Z,53.92
2018-09-08T08:35:47.506Z,55.06
2018-09-08T08:38:15.739Z,55.52
2018-09-08T08:40:43.967Z,55.00
2018-09-08T08:43:12.305Z,54.34
2018-09-08T08:45:41.594Z,54.78
2018-09-08T08:48:09.794Z,53.90
2018-09-08T08:51:47.883Z,54.40
2018-09-08T08:54:21.790Z,53.71
2018-09-08T08:56:50.038Z,56.99
2018-09-08T08:59:18.271Z,54.80
2018-09-08T09:01:46.518Z,52.76
2018-09-08T09:04:14.745Z,50.58
2018-09-08T09:06:43.010Z,49.49
2018-09-08T09:09:13.240Z,48.36
2018-09-08T09:11:41.479Z,48.85
2018-09-08T09:14:09.902Z,48.20
2018-09-08T09:16:38.177Z,47.76
2018-09-08T09:19:34.794Z,48.85
2018-09-08T09:22:15.642Z,47.85
2018-09-08T09:24:55.760Z,47.86
2018-09-08T09:27:24.612Z,48.45
2018-09-08T09:29:53.087Z,48.68
2018-09-08T09:32:21.427Z,46.85
2018-09-08T09:34:49.767Z,45.47
2018-09-08T09:37:18.037Z,46.21
2018-09-08T09:39:47.687Z,43.94
2018-09-08T09:42:15.939Z,45.06
2018-09-08T09:44:44.255Z,44.51
2018-09-08T09:47:14.544Z,45.58
2018-09-08T09:49:42.754Z,44.46
2018-09-08T09:52:11.036Z,45.44
2018-09-08T09:54:39.298Z,43.88
2018-09-08T09:57:08.696Z,44.52
2018-09-08T09:59:37.033Z,43.48
2018-09-08T10:02:11.604Z,42.77
2018-09-08T10:04:39.804Z,42.72
2018-09-08T10:07:09.501Z,42.73
2018-09-08T10:09:39.096Z,44.58
2018-09-08T10:12:07.407Z,41.76
2018-09-08T10:14:35.610Z,42.88
2018-09-08T10:17:03.826Z,43.69
2018-09-08T10:19:32.071Z,43.82
2018-09-08T10:22:00.333Z,42.48
2018-09-08T10:24:28.565Z,42.72
2018-09-08T10:26:56.815Z,43.81
2018-09-08T10:29:25.058Z,44.55
2018-09-08T10:31:53.286Z,40.45
2018-09-08T10:34:21.529Z,41.22
2018-09-08T10:36:49.753Z,40.72
2018-09-08T10:39:18.019Z,42.19
2018-09-08T10:41:46.241Z,42.40
2018-09-08T10:44:14.498Z,41.06
2018-09-08T10:46:42.759Z,41.62
2018-09-08T10:49:10.999Z,41.54
2018-09-08T10:51:48.643Z,40.12
2018-09-08T10:54:17.138Z,40.65
2018-09-08T10:56:45.363Z,39.69
2018-09-08T10:59:13.639Z,40.35
2018-09-08T11:01:41.939Z,39.90
2018-09-08T11:04:10.115Z,40.64
2018-09-08T11:06:38.384Z,39.58
2018-09-08T11:09:06.975Z,40.44
2018-09-08T11:11:35.333Z,40.86
2018-09-08T11:14:03.574Z,41.12
2018-09-08T11:16:31.805Z,40.09
2018-09-08T11:19:00.369Z,40.24
2018-09-08T11:21:28.622Z,40.64
2018-09-08T11:23:56.858Z,41.30
2018-09-08T11:26:25.106Z,40.04
2018-09-08T11:28:55.409Z,40.15
2018-09-08T11:31:23.630Z,38.68
2018-09-08T11:33:51.867Z,38.49
2018-09-08T11:36:20.118Z,38.93
2018-09-08T11:38:48.375Z,39.13
2018-09-08T11:41:16.602Z,38.73
2018-09-08T11:43:44.840Z,39.04
2018-09-08T11:46:13.074Z,39.43
2018-09-08T11:48:41.305Z,39.84
2018-09-08T11:51:09.550Z,39.53
2018-09-08T11:53:37.823Z,40.13
2018-09-08T11:56:06.123Z,39.56
2018-09-08T11:58:34.358Z,39.79
2018-09-08T12:01:02.606Z,39.92
2018-09-08T12:03:30.833Z,39.96
2018-09-08T12:05:59.062Z,39.65
2018-09-08T12:08:27.288Z,39.59
2018-09-08T12:10:55.579Z,39.55
2018-09-08T12:13:23.797Z,39.99
2018-09-08T12:15:52.010Z,39.75
2018-09-08T12:18:20.255Z,41.33
2018-09-08T12:20:48.505Z,41.46
2018-09-08T12:23:16.761Z,40.03
2018-09-08T12:25:45.003Z,39.82
2018-09-08T12:28:13.295Z,40.45
2018-09-08T12:30:41.616Z,39.83
2018-09-08T12:33:09.800Z,37.45
2018-09-08T12:35:38.100Z,38.17
2018-09-08T12:38:06.342Z,38.56
2018-09-08T12:40:34.568Z,39.59
2018-09-08T12:43:02.814Z,37.70
2018-09-08T12:45:31.043Z,36.91
2018-09-08T12:47:59.274Z,37.18
2018-09-08T12:50:27.501Z,35.64
2018-09-08T12:52:55.742Z,36.39
2018-09-08T12:55:24.011Z,37.03
2018-09-08T12:57:52.223Z,36.31
2018-09-08T13:00:20.471Z,36.23
2018-09-08T13:02:48.695Z,36.83
2018-09-08T13:05:16.914Z,36.56
2018-09-08T13:07:45.217Z,36.69
2018-09-08T13:10:13.417Z,35.82
2018-09-08T13:12:41.667Z,36.75
2018-09-08T13:15:09.877Z,35.42
2018-09-08T13:17:38.132Z,36.08
2018-09-08T13:20:06.431Z,34.92
2018-09-08T13:22:34.678Z,35.66
2018-09-08T13:25:02.897Z,35.38
2018-09-08T13:27:31.138Z,35.21
2018-09-08T13:29:59.394Z,35.52
2018-09-08T13:32:27.667Z,34.89
2018-09-08T13:34:55.930Z,34.60
2018-09-08T13:37:24.159Z,33.87
2018-09-08T13:39:52.431Z,34.96
2018-09-08T13:42:20.767Z,34.67
2018-09-08T13:44:48.991Z,34.92
2018-09-08T13:47:17.237Z,36.09
2018-09-08T13:49:45.591Z,34.99
2018-09-08T13:52:13.833Z,34.42
2018-09-08T13:54:42.095Z,35.17
2018-09-08T13:57:10.365Z,34.40
2018-09-08T13:59:38.561Z,34.45
2018-09-08T14:02:06.810Z,35.09
2018-09-08T14:04:35.094Z,35.34
2018-09-08T14:07:03.334Z,33.46
2018-09-08T14:09:31.574Z,33.50
2018-09-08T14:11:59.799Z,34.72
2018-09-08T14:14:28.022Z,33.76
2018-09-08T14:16:56.245Z,34.08
2018-09-08T14:19:24.503Z,34.00
2018-09-08T14:21:52.738Z,34.10
2018-09-08T14:24:20.951Z,34.46
2018-09-08T14:26:49.179Z,33.33
2018-09-08T14:29:17.405Z,33.70
2018-09-08T14:31:45.632Z,33.06
2018-09-08T14:34:13.862Z,33.80
2018-09-08T14:36:42.159Z,33.29
2018-09-08T14:39:10.807Z,33.57
2018-09-08T14:41:39.028Z,33.36
2018-09-08T14:44:07.458Z,32.43
2018-09-08T14:46:35.691Z,31.79
2018-09-08T14:49:03.923Z,32.61
2018-09-08T14:51:32.137Z,32.33
2018-09-08T14:54:00.399Z,32.33
2018-09-08T14:56:28.609Z,32.43
2018-09-08T14:58:56.832Z,31.81
2018-09-08T15:01:25.082Z,32.54
2018-09-08T15:03:53.306Z,32.62
2018-09-08T15:06:21.547Z,33.02
2018-09-08T15:08:49.787Z,32.47
2018-09-08T15:11:18.005Z,33.75
2018-09-08T15:13:46.210Z,33.72
2018-09-08T15:16:14.426Z,33.06
2018-09-08T15:18:42.673Z,33.00
2018-09-08T15:21:15.842Z,32.59
2018-09-08T15:23:44.090Z,32.57
2018-09-08T15:26:12.319Z,33.41
2018-09-08T15:28:40.536Z,32.04
2018-09-08T15:31:08.750Z,33.06
2018-09-08T15:33:36.975Z,31.62
2018-09-08T15:36:05.191Z,32.54
2018-09-08T15:38:33.424Z,32.10
2018-09-08T15:41:01.638Z,32.83
2018-09-08T15:43:30.125Z,32.84
2018-09-08T15:45:58.438Z,33.50
2018-09-08T15:48:26.601Z,32.75
2018-09-08T15:50:54.855Z,33.95
2018-09-08T15:53:23.069Z,32.71
2018-09-08T15:55:51.318Z,33.58
2018-09-08T15:58:19.603Z,34.11
2018-09-08T16:00:47.794Z,34.28
2018-09-08T16:03:15.991Z,33.59
2018-09-08T16:05:44.223Z,34.38
2018-09-08T16:08:12.455Z,34.19
2018-09-08T16:10:40.670Z,33.34
2018-09-08T16:13:10.557Z,34.25
2018-09-08T16:15:38.778Z,33.65
2018-09-08T16:18:07.074Z,34.85
2018-09-08T16:20:35.275Z,35.11
2018-09-08T16:23:03.505Z,34.15
2018-09-08T16:25:31.722Z,34.67
2018-09-08T16:27:59.943Z,35.13
2018-09-08T16:30:28.158Z,35.61
2018-09-08T16:32:56.482Z,36.26
2018-09-08T16:35:24.703Z,34.60
2018-09-08T16:37:52.947Z,34.92
2018-09-08T16:40:21.257Z,34.76
2018-09-08T16:42:49.440Z,36.84
2018-09-08T16:45:17.705Z,36.07
2018-09-08T16:47:45.947Z,37.32
2018-09-08T16:50:14.185Z,38.37
2018-09-08T16:52:42.527Z,37.64
2018-09-08T16:55:10.668Z,38.10
2018-09-08T16:57:38.869Z,38.99
2018-09-08T17:00:07.215Z,37.76
2018-09-08T17:02:35.512Z,38.77
2018-09-08T17:05:03.837Z,39.18
2018-09-08T17:07:32.002Z,39.58
2018-09-08T17:10:00.230Z,38.83
2018-09-08T17:12:28.433Z,39.76
2018-09-08T17:14:56.658Z,40.76
2018-09-08T17:17:24.886Z,41.00
2018-09-08T17:19:55.203Z,44.21
2018-09-08T17:22:23.427Z,42.62
2018-09-08T17:24:51.654Z,40.88
2018-09-08T17:27:19.875Z,41.88
2018-09-08T17:29:48.103Z,40.71
2018-09-08T17:32:16.465Z,41.26
2018-09-08T17:34:44.663Z,40.46
2018-09-08T17:37:12.889Z,45.25
2018-09-08T17:39:41.137Z,43.36
2018-09-08T17:42:11.665Z,40.98
2018-09-08T17:44:39.890Z,41.70
2018-09-08T17:47:08.137Z,44.33
2018-09-08T17:49:36.853Z,43.79
2018-09-08T17:52:05.165Z,45.37
2018-09-08T17:54:33.345Z,44.77
2018-09-08T17:57:01.586Z,47.30
2018-09-08T17:59:29.810Z,47.19
2018-09-08T18:01:58.034Z,44.56
2018-09-08T18:04:26.271Z,46.59
2018-09-08T18:06:54.525Z,46.80
2018-09-08T18:09:22.754Z,48.01
2018-09-08T18:11:51.089Z,47.33
2018-09-08T18:14:19.267Z,48.88
2018-09-08T18:16:47.541Z,47.63
2018-09-08T18:19:15.758Z,48.02
2018-09-08T18:21:44.035Z,47.71
2018-09-08T18:24:12.259Z,48.57
2018-09-08T18:26:40.823Z,49.03
2018-09-08T18:29:09.035Z,48.50
2018-09-08T18:31:37.270Z,48.70
2018-09-08T18:34:05.502Z,48.79
2018-09-08T18:36:34.825Z,49.30
2018-09-08T18:39:03.077Z,50.45
2018-09-08T18:41:31.399Z,49.63
2018-09-08T18:43:59.546Z,49.41
2018-09-08T18:46:27.782Z,50.72
2018-09-08T18:48:56.013Z,50.93
2018-09-08T18:51:24.258Z,50.10
2018-09-08T18:53:52.542Z,51.01
2018-09-08T18:56:20.766Z,51.84
2018-09-08T18:58:48.991Z,50.22
2018-09-08T19:01:17.227Z,50.28
2018-09-08T19:03:45.450Z,52.02
2018-09-08T19:06:13.742Z,50.31
2018-09-08T19:08:42.066Z,51.50
2018-09-08T19:11:12.123Z,51.51
2018-09-08T19:13:40.309Z,50.43
2018-09-08T19:16:08.537Z,51.06
2018-09-08T19:18:36.772Z,52.31
2018-09-08T19:21:05.149Z,51.62
2018-09-08T19:23:33.387Z,50.02
2018-09-08T19:26:01.622Z,50.80
2018-09-08T19:28:29.935Z,51.02
2018-09-08T19:30:58.159Z,51.55
2018-09-08T19:33:26.502Z,52.82
2018-09-08T19:35:55.419Z,52.59
2018-09-08T19:38:26.839Z,51.22
2018-09-08T19:40:55.067Z,51.53
2018-09-08T19:43:25.983Z,52.28
2018-09-08T19:45:54.241Z,52.79
2018-09-08T19:48:22.473Z,52.12
2018-09-08T19:50:50.710Z,52.18
2018-09-08T19:53:24.289Z,52.41
2018-09-08T19:55:52.555Z,52.79
2018-09-08T19:58:26.014Z,53.31
2018-09-08T20:00:54.238Z,53.35
2018-09-08T20:03:22.507Z,52.96
2018-09-08T20:05:50.743Z,52.74
2018-09-08T20:08:19.380Z,52.95
2018-09-08T20:10:48.480Z,53.11
2018-09-08T20:13:16.738Z,53.19
2018-09-08T20:15:44.986Z,53.32
2018-09-08T20:18:13.226Z,54.07
2018-09-08T20:20:41.447Z,53.58
2018-09-08T20:23:09.685Z,53.41
2018-09-08T20:25:37.901Z,54.13
2018-09-08T20:28:06.155Z,53.25
2018-09-08T20:30:34.381Z,53.03
2018-09-08T20:33:02.598Z,53.76
2018-09-08T20:35:30.843Z,53.44
2018-09-08T20:37:59.060Z,53.41
2018-09-08T20:40:27.329Z,54.07
2018-09-08T20:42:59.331Z,54.06
2018-09-08T20:45:27.590Z,54.38
2018-09-08T20:47:55.826Z,52.98
2018-09-08T20:50:24.071Z,53.92
2018-09-08T20:52:52.336Z,54.65
2018-09-08T20:55:20.598Z,53.97
2018-09-08T20:57:48.896Z,53.71
2018-09-08T21:00:19.265Z,55.29
2018-09-08T21:02:47.547Z,55.58
2018-09-08T21:05:15.776Z,56.20
2018-09-08T21:07:44.101Z,54.25
2018-09-08T21:10:12.355Z,55.75
2018-09-08T21:12:40.677Z,55.31
2018-09-08T21:15:08.974Z,55.29
2018-09-08T21:17:39.310Z,54.05
2018-09-08T21:20:07.602Z,53.61
2018-09-08T21:22:35.885Z,54.43
2018-09-08T21:25:04.246Z,54.26
2018-09-08T21:27:32.506Z,53.82
2018-09-08T21:30:00.755Z,54.89
2018-09-08T21:32:29.003Z,55.52
2018-09-08T21:34:57.233Z,56.41
2018-09-08T21:37:25.658Z,57.13
2018-09-08T21:39:53.970Z,58.21
2018-09-08T21:42:22.195Z,58.07
2018-09-08T21:44:50.455Z,57.47
2018-09-08T21:47:18.770Z,56.70
2018-09-08T21:49:47.031Z,58.31
2018-09-08T21:52:15.347Z,58.23
2018-09-08T21:54:43.601Z,58.87
2018-09-08T21:57:11.847Z,57.91
2018-09-08T21:59:40.075Z,58.16
2018-09-08T22:02:08.314Z,58.91
2018-09-08T22:04:36.528Z,58.65
2018-09-08T22:07:04.773Z,59.16
2018-09-08T22:09:33.029Z,58.47
2018-09-08T22:12:01.225Z,59.20
2018-09-08T22:14:29.470Z,59.02
2018-09-08T22:16:57.686Z,60.28
2018-09-08T22:19:25.929Z,59.46
2018-09-08T22:21:54.151Z,59.44
2018-09-08T22:24:22.426Z,60.18
2018-09-08T22:26:50.662Z,59.99
2018-09-08T22:29:18.925Z,61.08
2018-09-08T22:31:47.180Z,60.83
2018-09-08T22:34:15.410Z,60.58
2018-09-08T22:36:43.643Z,59.49
2018-09-08T22:39:11.886Z,59.75
2018-09-08T22:41:40.128Z,59.69
2018-09-08T22:44:08.390Z,60.18
2018-09-08T22:46:36.608Z,60.74
2018-09-08T22:49:04.903Z,59.94
2018-09-08T22:51:33.325Z,60.94
2018-09-08T22:54:01.567Z,60.36
2018-09-08T22:56:29.773Z,60.13
2018-09-08T22:58:58.042Z,61.32
2018-09-08T23:01:26.262Z,60.51
2018-09-08T23:03:54.520Z,61.53
2018-09-08T23:06:22.746Z,60.26
2018-09-08T23:08:50.970Z,59.92
2018-09-08T23:11:19.209Z,60.96
2018-09-08T23:13:47.429Z,61.28
2018-09-08T23:16:16.405Z,61.33
2018-09-08T23:18:44.631Z,60.80
2018-09-08T23:21:12.845Z,60.50
2018-09-08T23:23:41.090Z,59.84
2018-09-08T23:26:09.343Z,60.69
2018-09-08T23:28:37.699Z,60.12
2018-09-08T23:31:05.979Z,60.25
2018-09-08T23:33:34.291Z,60.86
2018-09-08T23:36:03.658Z,61.29
2018-09-08T23:38:31.871Z,60.11
2018-09-08T23:41:00.103Z,61.64
2018-09-08T23:43:28.358Z,60.70
2018-09-08T23:45:56.614Z,61.94
2018-09-08T23:48:25.134Z,61.97
2018-09-08T23:50:53.479Z,62.20
2018-09-08T23:53:21.698Z,62.10
2018-09-08T23:55:50.044Z,61.90
2018-09-08T23:58:18.254Z,61.40
